Time;durP1;ratioP1;P1;durP2;ratioP2;P2;SDS_P1;SDS_P2;PMS_P1;PMS_P2;Temp;Humidity;BMP_temperature;BMP_pressure;BME280_temperature;BME280_humidity;BME280_pressure;Samples;Min_cycle;Max_cycle;Signal;HPM_P1;HPM_P2
2024/03/24 00:01:35;;;;;;;0.00;0.00;;;21.50;52.90;;;;;;5071415;28;20290;-54
2024/03/24 00:04:05;;;;;;;0.00;0.00;;;21.50;52.80;;;;;;5070687;28;20199;-50
2024/03/24 00:06:34;;;;;;;0.10;0.10;;;21.50;53.00;;;;;;5070941;28;20237;-49
2024/03/24 00:09:06;;;;;;;0.00;0.00;;;21.50;52.90;;;;;;5070461;28;20226;-52
2024/03/24 00:11:35;;;;;;;0.00;0.00;;;21.60;52.80;;;;;;5064576;28;20210;-50
2024/03/24 00:14:06;;;;;;;0.00;0.00;;;21.60;53.00;;;;;;5050713;28;20294;-49
2024/03/24 00:16:38;;;;;;;0.00;0.00;;;21.60;53.10;;;;;;5051195;28;20203;-49
2024/03/24 00:19:09;;;;;;;0.10;0.10;;;21.60;53.10;;;;;;5063958;28;20195;-49
2024/03/24 00:21:38;;;;;;;0.00;0.00;;;21.70;53.00;;;;;;5070717;28;20658;-50
2024/03/24 00:24:09;;;;;;;0.00;0.00;;;21.70;53.00;;;;;;5065593;28;20640;-50
2024/03/24 00:26:38;;;;;;;0.10;0.10;;;21.70;53.00;;;;;;5051031;28;20214;-53
2024/03/24 00:29:09;;;;;;;0.00;0.00;;;21.70;52.90;;;;;;5050106;28;20223;-48
2024/03/24 00:31:40;;;;;;;0.00;0.00;;;21.70;53.00;;;;;;5053324;28;20187;-52
2024/03/24 00:34:10;;;;;;;0.00;0.00;;;21.70;52.90;;;;;;5050016;28;20614;-50
2024/03/24 00:36:39;;;;;;;0.00;0.00;;;21.70;52.90;;;;;;5050105;28;20203;-48
2024/03/24 00:39:10;;;;;;;0.10;0.10;;;21.80;53.00;;;;;;5051717;28;20192;-52
2024/03/24 00:41:39;;;;;;;0.00;0.00;;;21.80;53.00;;;;;;5069004;28;20969;-57
2024/03/24 00:44:10;;;;;;;0.00;0.00;;;21.80;53.00;;;;;;5070296;28;20639;-47
2024/03/24 00:46:41;;;;;;;0.00;0.00;;;21.80;52.90;;;;;;5070312;28;20252;-50
2024/03/24 00:49:12;;;;;;;0.03;0.03;;;21.80;53.00;;;;;;5070190;28;20820;-47
2024/03/24 00:51:41;;;;;;;0.00;0.00;;;21.80;52.80;;;;;;5070533;28;20264;-47
2024/03/24 00:54:12;;;;;;;0.00;0.00;;;21.90;53.00;;;;;;5053674;28;20200;-54
2024/03/24 00:56:41;;;;;;;0.00;0.00;;;21.90;53.10;;;;;;5050219;28;20207;-48
2024/03/24 00:59:11;;;;;;;0.00;0.00;;;21.90;52.90;;;;;;5063913;28;20673;-52
2024/03/24 01:01:42;;;;;;;0.00;0.00;;;21.90;53.00;;;;;;5069425;28;20201;-48
2024/03/24 01:04:13;;;;;;;0.00;0.00;;;21.90;53.00;;;;;;5069796;28;20203;-49
2024/03/24 01:06:42;;;;;;;0.00;0.00;;;21.90;53.00;;;;;;5050683;28;20707;-47
2024/03/24 01:09:15;;;;;;;0.00;0.00;;;21.90;53.00;;;;;;5049148;28;20786;-46
2024/03/24 01:11:44;;;;;;;0.00;0.00;;;21.90;52.90;;;;;;5053266;28;20287;-50
2024/03/24 01:14:15;;;;;;;0.00;0.00;;;21.90;53.00;;;;;;5053108;28;20210;-46
2024/03/24 01:16:46;;;;;;;0.00;0.00;;;22.00;53.00;;;;;;5053181;28;20203;-48
2024/03/24 01:19:16;;;;;;;0.00;0.00;;;22.00;53.00;;;;;;5052008;28;20206;-46
2024/03/24 01:21:46;;;;;;;0.00;0.00;;;22.00;53.00;;;;;;5052865;28;20203;-46
2024/03/24 01:24:16;;;;;;;0.00;0.00;;;22.00;53.00;;;;;;5062631;28;20651;-47
2024/03/24 01:26:45;;;;;;;0.03;0.03;;;22.00;53.00;;;;;;5053107;28;20196;-46
2024/03/24 01:29:16;;;;;;;0.00;0.00;;;22.00;53.10;;;;;;5053562;28;20238;-47
2024/03/24 01:31:47;;;;;;;0.00;0.00;;;22.00;53.10;;;;;;5073133;28;20201;-46
2024/03/24 01:34:18;;;;;;;0.00;0.00;;;22.00;53.10;;;;;;5072480;28;20221;-47
2024/03/24 01:36:48;;;;;;;0.00;0.00;;;22.00;53.00;;;;;;5072757;28;20201;-48
2024/03/24 01:39:18;;;;;;;0.00;0.00;;;22.00;52.90;;;;;;5072663;28;20720;-46
2024/03/24 01:41:47;;;;;;;0.00;0.00;;;22.10;53.10;;;;;;5072989;28;20194;-46
2024/03/24 01:44:18;;;;;;;0.00;0.00;;;22.00;53.00;;;;;;5072676;28;20681;-48
2024/03/24 01:46:49;;;;;;;0.00;0.00;;;22.10;53.10;;;;;;5072724;28;20264;-45
2024/03/24 01:49:20;;;;;;;0.10;0.10;;;22.10;53.10;;;;;;5071699;28;20234;-48
2024/03/24 01:51:49;;;;;;;0.00;0.00;;;22.10;53.10;;;;;;5072532;28;20221;-45
2024/03/24 01:54:20;;;;;;;0.08;0.08;;;22.10;53.20;;;;;;5068986;28;20565;-45
2024/03/24 01:56:50;;;;;;;0.00;0.00;;;22.20;53.30;;;;;;5073074;28;20593;-46
2024/03/24 01:59:20;;;;;;;0.10;0.10;;;22.10;53.20;;;;;;5072985;28;20209;-48
2024/03/24 02:01:51;;;;;;;0.10;0.10;;;22.10;53.20;;;;;;5072697;28;20203;-46
2024/03/24 02:04:22;;;;;;;0.00;0.00;;;22.10;53.10;;;;;;5071766;28;20252;-46
2024/03/24 02:06:51;;;;;;;0.00;0.00;;;22.20;53.20;;;;;;5071411;28;20195;-45
2024/03/24 02:09:22;;;;;;;0.10;0.10;;;22.10;53.20;;;;;;5072101;28;20598;-48
2024/03/24 02:11:51;;;;;;;0.00;0.00;;;22.20;53.20;;;;;;5072107;28;20198;-45
2024/03/24 02:14:22;;;;;;;0.00;0.00;;;22.10;53.20;;;;;;5071858;28;20238;-45
2024/03/24 02:16:54;;;;;;;0.00;0.00;;;22.20;53.30;;;;;;5071825;28;20268;-46
2024/03/24 02:19:24;;;;;;;0.00;0.00;;;22.20;53.30;;;;;;5071218;28;20198;-50
2024/03/24 02:21:53;;;;;;;0.00;0.00;;;22.20;53.30;;;;;;5057930;28;20187;-47
2024/03/24 02:24:26;;;;;;;0.03;0.03;;;22.20;53.30;;;;;;5055231;28;20195;-48
2024/03/24 02:26:55;;;;;;;0.00;0.00;;;22.20;53.30;;;;;;5072159;28;20209;-48
2024/03/24 02:29:26;;;;;;;0.00;0.00;;;22.20;53.30;;;;;;5071805;28;20250;-48
2024/03/24 02:31:55;;;;;;;0.00;0.00;;;22.20;53.30;;;;;;5071747;28;20199;-47
2024/03/24 02:34:26;;;;;;;0.00;0.00;;;22.20;53.30;;;;;;5071632;28;20225;-48
2024/03/24 02:36:55;;;;;;;0.10;0.10;;;22.20;53.30;;;;;;5071000;28;20199;-48
2024/03/24 02:39:28;;;;;;;0.00;0.00;;;22.30;53.30;;;;;;5071235;28;20226;-45
2024/03/24 02:41:57;;;;;;;0.10;0.10;;;22.30;53.40;;;;;;5071905;28;20194;-46
2024/03/24 02:44:27;;;;;;;0.00;0.00;;;22.30;53.40;;;;;;5071664;28;20222;-50
2024/03/24 02:46:56;;;;;;;0.00;0.00;;;22.30;53.40;;;;;;5071228;28;20223;-48
2024/03/24 02:49:27;;;;;;;0.00;0.00;;;22.30;53.40;;;;;;5070856;28;20222;-46
2024/03/24 02:51:56;;;;;;;0.00;0.00;;;22.30;53.40;;;;;;5053806;28;20686;-50
2024/03/24 02:54:29;;;;;;;0.00;0.00;;;22.30;53.40;;;;;;5055751;28;20223;-48
2024/03/24 02:56:58;;;;;;;0.00;0.00;;;22.30;53.30;;;;;;5071412;28;20199;-50
2024/03/24 02:59:29;;;;;;;0.00;0.00;;;22.30;53.40;;;;;;5071267;28;20280;-49
2024/03/24 03:01:58;;;;;;;0.00;0.00;;;22.30;53.50;;;;;;5071026;28;20199;-46
2024/03/24 03:04:30;;;;;;;0.00;0.00;;;22.30;53.50;;;;;;5071832;28;20250;-50
2024/03/24 03:07:00;;;;;;;0.10;0.10;;;22.40;53.50;;;;;;5071802;28;20202;-45
2024/03/24 03:09:33;;;;;;;0.00;0.00;;;22.30;53.50;;;;;;5071562;28;20325;-47
2024/03/24 03:12:02;;;;;;;0.00;0.00;;;22.40;53.60;;;;;;5071658;28;20724;-50
2024/03/24 03:14:33;;;;;;;0.00;0.00;;;22.40;53.50;;;;;;5068216;28;20215;-48
2024/03/24 03:17:02;;;;;;;0.00;0.00;;;22.40;53.70;;;;;;5071222;28;20237;-50
2024/03/24 03:19:33;;;;;;;0.00;0.00;;;22.40;53.80;;;;;;5076050;28;20199;-48
2024/03/24 03:22:02;;;;;;;0.00;0.00;;;22.40;53.90;;;;;;5075637;28;20555;-46
2024/03/24 03:24:34;;;;;;;0.00;0.00;;;22.50;53.90;;;;;;5070429;28;20219;-47
2024/03/24 03:27:04;;;;;;;0.00;0.00;;;22.50;53.80;;;;;;5055090;28;20191;-50
2024/03/24 03:29:34;;;;;;;0.00;0.00;;;22.50;53.90;;;;;;5054739;28;20250;-45
2024/03/24 03:32:03;;;;;;;0.00;0.00;;;22.50;54.00;;;;;;5054926;28;20195;-46
2024/03/24 03:34:34;;;;;;;0.00;0.00;;;22.50;54.00;;;;;;5055795;28;20215;-45
2024/03/24 03:37:03;;;;;;;0.00;0.00;;;22.60;54.00;;;;;;5074820;28;20191;-48
2024/03/24 03:39:36;;;;;;;0.00;0.00;;;22.60;53.90;;;;;;5075034;28;20195;-49
2024/03/24 03:42:05;;;;;;;0.00;0.00;;;22.60;53.90;;;;;;5075252;28;20551;-46
2024/03/24 03:44:36;;;;;;;0.00;0.00;;;22.70;53.90;;;;;;5073918;28;20249;-51
2024/03/24 03:47:06;;;;;;;0.00;0.00;;;22.70;53.90;;;;;;5072586;28;20195;-52
2024/03/24 03:49:37;;;;;;;0.10;0.10;;;22.70;53.90;;;;;;5075012;28;20225;-46
2024/03/24 03:52:06;;;;;;;0.00;0.00;;;22.70;53.90;;;;;;5075162;28;20194;-47
2024/03/24 03:54:39;;;;;;;0.00;0.00;;;22.80;53.90;;;;;;5075024;28;20308;-46
2024/03/24 03:57:08;;;;;;;0.10;0.10;;;22.80;53.90;;;;;;5075046;28;20195;-48
2024/03/24 03:59:39;;;;;;;0.03;0.03;;;22.80;53.80;;;;;;5057777;22;20314;-52
2024/03/24 04:02:08;;;;;;;0.00;0.00;;;22.90;53.80;;;;;;5034187;28;20207;-54
2024/03/24 04:04:41;;;;;;;0.00;0.00;;;22.90;53.70;;;;;;5034652;28;20766;-47
2024/03/24 04:07:10;;;;;;;0.00;0.00;;;22.90;53.70;;;;;;5034578;28;20204;-48
2024/03/24 04:09:42;;;;;;;0.00;0.00;;;23.00;53.70;;;;;;5034217;28;20380;-51
2024/03/24 04:12:11;;;;;;;0.00;0.00;;;23.00;53.60;;;;;;5034496;28;20203;-49
2024/03/24 04:14:42;;;;;;;0.00;0.00;;;23.00;53.50;;;;;;5034355;28;20216;-51
2024/03/24 04:17:11;;;;;;;0.00;0.00;;;23.10;53.50;;;;;;5034066;28;20617;-58
2024/03/24 04:19:42;;;;;;;0.00;0.00;;;23.10;53.40;;;;;;5033843;28;20192;-55
2024/03/24 04:22:11;;;;;;;0.00;0.00;;;23.10;53.40;;;;;;5034617;28;20200;-50
2024/03/24 04:24:44;;;;;;;0.00;0.00;;;23.20;53.30;;;;;;5034085;28;20719;-52
2024/03/24 04:27:13;;;;;;;0.10;0.10;;;23.20;53.20;;;;;;5034339;28;20192;-48
2024/03/24 04:29:44;;;;;;;0.00;0.00;;;23.30;53.20;;;;;;5033395;28;20227;-53
2024/03/24 04:32:14;;;;;;;0.00;0.00;;;23.30;53.00;;;;;;5040817;28;20623;-58
2024/03/24 04:34:45;;;;;;;0.00;0.00;;;23.30;52.90;;;;;;5053662;28;20310;-55
2024/03/24 04:37:14;;;;;;;0.10;0.10;;;23.40;52.90;;;;;;5052389;28;20585;-60
2024/03/24 04:39:46;;;;;;;0.00;0.00;;;23.40;52.80;;;;;;5053728;28;20210;-53
2024/03/24 04:42:17;;;;;;;0.00;0.00;;;23.40;52.70;;;;;;5047287;28;20196;-45
2024/03/24 04:44:51;;;;;;;0.00;0.00;;;23.50;52.60;;;;;;5033634;28;20223;-56
2024/03/24 04:47:22;;;;;;;0.00;0.00;;;23.50;52.50;;;;;;5033491;28;20196;-55
2024/03/24 04:49:53;;;;;;;0.00;0.00;;;23.50;52.50;;;;;;5034111;28;20224;-55
2024/03/24 04:52:23;;;;;;;0.00;0.00;;;23.60;52.50;;;;;;5034151;28;20206;-56
2024/03/24 04:54:57;;;;;;;0.00;0.00;;;23.70;52.50;;;;;;5033657;28;20220;-50
2024/03/24 04:57:26;;;;;;;0.00;0.00;;;23.70;52.40;;;;;;5034069;28;20200;-55
2024/03/24 04:59:56;;;;;;;0.00;0.00;;;23.70;52.30;;;;;;5044911;23;20297;-48
2024/03/24 05:02:25;;;;;;;0.00;0.00;;;23.80;52.30;;;;;;5032992;28;20200;-45
2024/03/24 05:04:56;;;;;;;0.00;0.00;;;23.80;52.20;;;;;;5032932;28;20219;-47
2024/03/24 05:07:25;;;;;;;0.00;0.00;;;23.90;52.10;;;;;;5033939;28;20227;-46
2024/03/24 05:09:58;;;;;;;0.10;0.10;;;23.90;52.00;;;;;;5034020;28;20303;-47
2024/03/24 05:12:27;;;;;;;0.10;0.10;;;24.00;52.00;;;;;;5033550;28;20242;-46
2024/03/24 05:14:58;;;;;;;0.00;0.00;;;24.00;51.90;;;;;;5032998;28;20257;-50
2024/03/24 05:17:27;;;;;;;0.00;0.00;;;24.00;51.90;;;;;;5032819;28;20250;-46
2024/03/24 05:19:57;;;;;;;0.00;0.00;;;24.10;51.70;;;;;;5033563;28;20204;-48
2024/03/24 05:22:26;;;;;;;0.10;0.10;;;24.20;51.70;;;;;;5033407;28;20656;-45
2024/03/24 05:24:59;;;;;;;0.00;0.00;;;24.20;51.50;;;;;;5032940;28;20220;-46
2024/03/24 05:27:30;;;;;;;0.00;0.00;;;24.20;51.30;;;;;;5033280;28;20537;-44
2024/03/24 05:30:00;;;;;;;0.00;0.00;;;24.30;51.30;;;;;;5032769;28;20274;-45
2024/03/24 05:32:29;;;;;;;0.00;0.00;;;24.30;51.10;;;;;;5032848;28;20192;-48
2024/03/24 05:35:00;;;;;;;0.10;0.10;;;24.30;51.00;;;;;;5032998;28;20222;-48
2024/03/24 05:37:29;;;;;;;0.00;0.00;;;24.30;50.90;;;;;;5033258;28;20254;-49
2024/03/24 05:40:02;;;;;;;0.00;0.00;;;24.30;50.80;;;;;;5033102;28;20258;-49
2024/03/24 05:42:31;;;;;;;0.00;0.00;;;24.40;50.70;;;;;;5033711;28;20195;-47
2024/03/24 05:45:01;;;;;;;0.00;0.00;;;24.40;50.50;;;;;;5032704;28;20219;-48
2024/03/24 05:47:31;;;;;;;0.00;0.00;;;24.40;50.50;;;;;;5032653;28;20239;-47
2024/03/24 05:50:01;;;;;;;0.00;0.00;;;24.40;50.30;;;;;;5032591;28;20580;-48
2024/03/24 05:52:30;;;;;;;0.00;0.00;;;24.40;50.20;;;;;;5032524;28;20235;-47
2024/03/24 05:55:04;;;;;;;0.00;0.00;;;24.40;50.00;;;;;;5032520;28;20220;-46
2024/03/24 05:57:34;;;;;;;0.00;0.00;;;24.40;49.90;;;;;;5032820;28;20196;-46
2024/03/24 06:00:05;;;;;;;0.00;0.00;;;24.50;49.90;;;;;;5032459;28;20219;-51
2024/03/24 06:02:34;;;;;;;0.08;0.08;;;24.50;50.00;;;;;;5032876;28;20197;-48
2024/03/24 06:05:06;;;;;;;0.00;0.00;;;24.50;50.00;;;;;;5032606;28;20262;-48
2024/03/24 06:07:36;;;;;;;0.00;0.00;;;24.50;49.90;;;;;;5032535;28;20207;-49
2024/03/24 06:10:09;;;;;;;0.00;0.00;;;24.50;49.90;;;;;;5032502;28;20230;-47
2024/03/24 06:12:38;;;;;;;0.00;0.00;;;24.50;49.90;;;;;;5032523;28;20235;-47
2024/03/24 06:15:10;;;;;;;0.00;0.00;;;24.50;50.00;;;;;;5031831;28;20576;-48
2024/03/24 06:17:39;;;;;;;0.00;0.00;;;24.50;50.00;;;;;;5032050;28;20242;-47
2024/03/24 06:20:11;;;;;;;0.00;0.00;;;24.50;49.80;;;;;;5032145;28;20200;-47
2024/03/24 06:22:40;;;;;;;0.00;0.00;;;24.50;49.80;;;;;;5032603;28;20369;-50
2024/03/24 06:25:12;;;;;;;0.00;0.00;;;24.50;49.70;;;;;;5032331;28;20228;-51
2024/03/24 06:27:42;;;;;;;0.00;0.00;;;24.50;49.70;;;;;;5031910;28;20192;-48
2024/03/24 06:30:13;;;;;;;0.00;0.00;;;24.50;49.70;;;;;;5031361;28;20303;-46
2024/03/24 06:32:42;;;;;;;0.00;0.00;;;24.50;49.70;;;;;;5032164;28;20219;-47
2024/03/24 06:35:13;;;;;;;0.00;0.00;;;24.50;49.60;;;;;;5032236;28;20218;-46
2024/03/24 06:37:42;;;;;;;0.00;0.00;;;24.50;49.60;;;;;;5031145;28;20196;-45
2024/03/24 06:40:15;;;;;;;0.00;0.00;;;24.50;49.50;;;;;;5030799;28;20206;-48
2024/03/24 06:42:44;;;;;;;0.00;0.00;;;24.50;49.50;;;;;;5031299;28;20192;-47
2024/03/24 06:45:15;;;;;;;0.03;0.03;;;24.50;49.60;;;;;;5030593;28;20699;-48
2024/03/24 06:47:45;;;;;;;0.00;0.00;;;24.50;49.70;;;;;;5031585;28;20733;-46
2024/03/24 06:50:15;;;;;;;0.00;0.00;;;24.50;49.60;;;;;;5031137;28;20227;-49
2024/03/24 06:52:44;;;;;;;0.00;0.00;;;24.50;49.50;;;;;;5031316;28;20675;-49
2024/03/24 06:55:17;;;;;;;0.00;0.00;;;24.40;49.40;;;;;;5031824;28;20224;-45
2024/03/24 06:57:53;;;;;;;0.00;0.00;;;24.50;49.30;;;;;;5030756;28;20254;-51
2024/03/24 07:00:24;;;;;;;0.05;0.05;;;24.40;49.10;;;;;;5030876;28;20204;-46
2024/03/24 07:02:53;;;;;;;0.05;0.05;;;24.40;49.00;;;;;;5031044;28;20200;-47
2024/03/24 07:05:23;;;;;;;0.00;0.00;;;24.40;48.90;;;;;;5031444;28;20220;-48
2024/03/24 07:07:53;;;;;;;0.00;0.00;;;24.40;48.80;;;;;;5031410;28;20230;-48
2024/03/24 07:10:25;;;;;;;0.00;0.00;;;24.40;48.80;;;;;;5031452;28;20215;-47
2024/03/24 07:12:54;;;;;;;0.00;0.00;;;24.30;48.60;;;;;;5031356;28;20211;-48
2024/03/24 07:15:25;;;;;;;0.00;0.00;;;24.30;48.60;;;;;;5030106;28;20266;-46
2024/03/24 07:17:54;;;;;;;0.00;0.00;;;24.30;48.60;;;;;;5030862;28;20196;-48
2024/03/24 07:20:25;;;;;;;0.00;0.00;;;24.30;48.60;;;;;;5031754;28;20274;-48
2024/03/24 07:22:54;;;;;;;0.00;0.00;;;24.30;48.60;;;;;;5029218;28;20399;-50
2024/03/24 07:25:28;;;;;;;0.00;0.00;;;24.30;48.70;;;;;;5031081;28;20238;-46
2024/03/24 07:27:57;;;;;;;0.00;0.00;;;24.30;48.70;;;;;;5031549;28;20291;-46
2024/03/24 07:30:29;;;;;;;0.00;0.00;;;24.20;48.40;;;;;;5022820;28;20227;-48
2024/03/24 07:32:58;;;;;;;0.00;0.00;;;24.20;48.20;;;;;;5022628;28;20192;-45
2024/03/24 07:35:28;;;;;;;0.00;0.00;;;24.20;48.10;;;;;;5027535;28;20298;-45
2024/03/24 07:37:58;;;;;;;0.00;0.00;;;24.20;48.70;;;;;;5027068;28;20192;-47
2024/03/24 07:40:30;;;;;;;0.00;0.00;;;24.20;48.20;;;;;;5027985;28;20247;-48
2024/03/24 07:42:59;;;;;;;0.00;0.00;;;24.20;48.20;;;;;;5027311;28;20204;-47
2024/03/24 07:45:32;;;;;;;0.00;0.00;;;24.10;48.20;;;;;;5026700;28;20307;-48
2024/03/24 07:48:01;;;;;;;0.10;0.10;;;24.20;48.20;;;;;;5026860;28;20196;-49
2024/03/24 07:50:32;;;;;;;0.00;0.00;;;24.10;48.20;;;;;;5026994;28;20726;-47
2024/03/24 07:53:01;;;;;;;0.00;0.00;;;24.10;48.10;;;;;;5027430;28;20193;-48
2024/03/24 07:55:34;;;;;;;0.00;0.00;;;24.10;48.10;;;;;;5027264;28;20224;-48
2024/03/24 07:58:04;;;;;;;0.10;0.10;;;24.10;48.10;;;;;;5027444;28;20206;-45
2024/03/24 08:00:34;;;;;;;0.10;0.10;;;24.00;48.00;;;;;;5026288;28;20222;-46
2024/03/24 08:03:04;;;;;;;0.10;0.10;;;24.00;48.00;;;;;;5027399;28;20239;-46
2024/03/24 08:05:35;;;;;;;0.00;0.00;;;24.00;48.00;;;;;;5029987;28;20227;-49
2024/03/24 08:08:04;;;;;;;0.00;0.00;;;24.00;48.00;;;;;;5031257;28;20212;-46
2024/03/24 08:10:36;;;;;;;0.00;0.00;;;23.90;47.90;;;;;;5030704;28;20334;-49
2024/03/24 08:13:06;;;;;;;0.00;0.00;;;24.00;47.90;;;;;;5030914;28;20200;-49
2024/03/24 08:15:36;;;;;;;0.05;0.05;;;23.90;47.80;;;;;;5030507;28;20601;-48
2024/03/24 08:18:06;;;;;;;0.00;0.00;;;23.90;47.90;;;;;;5030806;28;20200;-49
2024/03/24 08:20:36;;;;;;;0.00;0.00;;;23.90;47.90;;;;;;5030402;28;20570;-48
2024/03/24 08:23:06;;;;;;;0.00;0.00;;;23.90;47.90;;;;;;5030366;28;20203;-46
2024/03/24 08:25:39;;;;;;;0.00;0.00;;;23.80;47.80;;;;;;5030812;28;20227;-48
2024/03/24 08:28:08;;;;;;;0.00;0.00;;;23.80;47.80;;;;;;5030928;28;20653;-48
2024/03/24 08:30:39;;;;;;;0.08;0.08;;;23.80;47.80;;;;;;5030726;28;20235;-47
2024/03/24 08:33:09;;;;;;;0.00;0.00;;;23.80;47.80;;;;;;5030965;28;20200;-46
2024/03/24 08:35:39;;;;;;;0.00;0.00;;;23.80;47.80;;;;;;5029823;28;20246;-50
2024/03/24 08:38:08;;;;;;;0.00;0.00;;;23.80;47.80;;;;;;5030995;28;20203;-47
2024/03/24 08:40:41;;;;;;;0.00;0.00;;;23.80;47.70;;;;;;5029944;28;20235;-48
2024/03/24 08:43:10;;;;;;;0.00;0.00;;;23.80;47.50;;;;;;5029863;28;20200;-46
2024/03/24 08:45:41;;;;;;;0.00;0.00;;;23.70;47.20;;;;;;5029156;28;20224;-48
2024/03/24 08:48:10;;;;;;;0.00;0.00;;;23.70;47.10;;;;;;5030905;28;20656;-47
2024/03/24 08:50:40;;;;;;;0.10;0.10;;;23.70;47.00;;;;;;5030388;28;20270;-45
2024/03/24 08:53:11;;;;;;;0.00;0.00;;;23.70;47.00;;;;;;5030694;28;20208;-46
2024/03/24 08:55:43;;;;;;;0.10;0.10;;;23.70;47.00;;;;;;5029912;28;20762;-44
2024/03/24 08:58:12;;;;;;;0.00;0.00;;;23.70;47.00;;;;;;5030353;28;20625;-45
2024/03/24 09:00:45;;;;;;;0.10;0.10;;;23.60;47.00;;;;;;5030403;28;20211;-46
2024/03/24 09:03:14;;;;;;;0.10;0.10;;;23.60;47.10;;;;;;5029352;28;20550;-46
2024/03/24 09:05:45;;;;;;;0.00;0.00;;;23.60;47.20;;;;;;5030192;28;20226;-45
2024/03/24 09:08:14;;;;;;;0.00;0.00;;;23.60;47.20;;;;;;5028552;28;20204;-45
2024/03/24 09:10:46;;;;;;;0.00;0.00;;;23.60;47.20;;;;;;5029317;28;20358;-47
2024/03/24 09:13:15;;;;;;;0.00;0.00;;;23.60;47.30;;;;;;5029735;28;20199;-48
2024/03/24 09:15:46;;;;;;;0.00;0.00;;;23.50;47.20;;;;;;5028621;28;20286;-52
2024/03/24 09:18:15;;;;;;;0.00;0.00;;;23.50;47.30;;;;;;5030065;28;20676;-45
2024/03/24 09:20:46;;;;;;;0.00;0.00;;;23.50;47.20;;;;;;5029331;28;20205;-47
2024/03/24 09:23:17;;;;;;;0.00;0.00;;;23.50;47.30;;;;;;5029833;28;20204;-46
2024/03/24 09:25:49;;;;;;;0.00;0.00;;;23.50;47.20;;;;;;5028803;28;20224;-49
2024/03/24 09:28:20;;;;;;;0.00;0.00;;;23.50;47.20;;;;;;5029519;28;20204;-45
2024/03/24 09:30:57;;;;;;;0.00;0.00;;;23.50;47.20;;;;;;5029415;28;20319;-47
2024/03/24 09:33:28;;;;;;;0.00;0.00;;;23.50;47.20;;;;;;5029585;28;20207;-50
2024/03/24 09:36:01;;;;;;;0.00;0.00;;;23.50;47.10;;;;;;5029737;28;20224;-49
2024/03/24 09:38:31;;;;;;;0.00;0.00;;;23.50;47.10;;;;;;5028894;28;20699;-47
2024/03/24 09:41:02;;;;;;;0.00;0.00;;;23.40;47.00;;;;;;5032670;28;20207;-46
2024/03/24 09:43:33;;;;;;;0.00;0.00;;;23.40;46.90;;;;;;5033055;28;20192;-46
2024/03/24 09:46:03;;;;;;;0.00;0.00;;;23.40;46.90;;;;;;5033307;28;20216;-47
2024/03/24 09:48:35;;;;;;;0.00;0.00;;;23.40;46.80;;;;;;5032897;28;20200;-47
2024/03/24 09:51:06;;;;;;;0.00;0.00;;;23.40;46.70;;;;;;5032617;28;20306;-45
2024/03/24 09:53:38;;;;;;;0.00;0.00;;;23.40;46.70;;;;;;5032660;28;20254;-46
2024/03/24 09:56:10;;;;;;;0.00;0.00;;;23.30;46.60;;;;;;5032049;28;20591;-50
2024/03/24 09:58:44;;;;;;;0.00;0.00;;;23.30;46.60;;;;;;5029876;28;20196;-44
2024/03/24 10:01:13;;;;;;;0.00;0.00;;;23.30;46.60;;;;;;5032270;28;20254;-48
2024/03/24 10:03:44;;;;;;;0.00;0.00;;;23.30;46.60;;;;;;5032913;28;20283;-47
2024/03/24 10:06:15;;;;;;;0.00;0.00;;;23.30;46.70;;;;;;5032350;28;20223;-48
2024/03/24 10:08:46;;;;;;;0.00;0.00;;;23.30;46.70;;;;;;5032643;28;20215;-46
2024/03/24 10:11:30;;;;;;;0.00;0.00;;;23.30;46.70;;;;;;5032392;28;20647;-48
2024/03/24 10:14:02;;;;;;;0.00;0.00;;;23.20;46.60;;;;;;5032185;28;20551;-46
2024/03/24 10:16:33;;;;;;;0.00;0.00;;;23.20;47.20;;;;;;5031859;28;20431;-47
2024/03/24 10:19:12;;;;;;;0.08;0.08;;;23.20;46.60;;;;;;5032366;28;20192;-46
2024/03/24 10:21:43;;;;;;;0.00;0.00;;;23.20;46.60;;;;;;5032523;28;20205;-45
2024/03/24 10:24:12;;;;;;;0.00;0.00;;;23.20;46.60;;;;;;5032293;28;20200;-46
2024/03/24 10:26:45;;;;;;;0.00;0.00;;;23.20;46.60;;;;;;5031156;28;20191;-46
2024/03/24 10:29:14;;;;;;;0.00;0.00;;;23.20;46.60;;;;;;5031414;28;20196;-45
2024/03/24 10:31:47;;;;;;;0.00;0.00;;;23.10;46.50;;;;;;5031896;28;20285;-47
2024/03/24 10:34:16;;;;;;;0.00;0.00;;;23.10;46.40;;;;;;5031203;28;20196;-50
2024/03/24 10:36:47;;;;;;;0.00;0.00;;;23.10;46.40;;;;;;5031923;28;20195;-45
2024/03/24 10:39:16;;;;;;;0.00;0.00;;;23.10;46.40;;;;;;5032276;28;20200;-45
2024/03/24 10:41:52;;;;;;;0.00;0.00;;;23.10;46.40;;;;;;5032112;28;20657;-45
2024/03/24 10:44:25;;;;;;;0.00;0.00;;;23.10;46.40;;;;;;5031793;28;20196;-47
2024/03/24 10:46:56;;;;;;;0.00;0.00;;;23.10;46.40;;;;;;5031646;28;20200;-49
2024/03/24 10:49:27;;;;;;;0.00;0.00;;;23.10;46.30;;;;;;5031570;28;20200;-47
2024/03/24 10:51:59;;;;;;;0.00;0.00;;;23.00;46.20;;;;;;5030877;28;20216;-47
2024/03/24 10:54:28;;;;;;;0.00;0.00;;;23.00;46.20;;;;;;5030816;28;20228;-47
2024/03/24 10:57:02;;;;;;;0.00;0.00;;;23.00;46.10;;;;;;5030764;28;20203;-49
2024/03/24 10:59:33;;;;;;;0.10;0.10;;;23.00;46.00;;;;;;5030496;28;20208;-47
2024/03/24 11:02:04;;;;;;;0.00;0.00;;;23.00;46.00;;;;;;5030581;28;20211;-49
2024/03/24 11:04:33;;;;;;;0.05;0.05;;;23.00;46.10;;;;;;5028780;28;20227;-48
2024/03/24 11:07:05;;;;;;;0.00;0.00;;;23.00;46.00;;;;;;5031279;28;20185;-51
2024/03/24 11:09:35;;;;;;;0.00;0.00;;;22.90;46.10;;;;;;5028834;28;20189;-48
2024/03/24 11:12:09;;;;;;;0.00;0.00;;;22.90;46.10;;;;;;5031534;28;20219;-48
2024/03/24 11:14:38;;;;;;;0.08;0.08;;;22.90;46.10;;;;;;5029697;28;20204;-49
2024/03/24 11:17:11;;;;;;;0.00;0.00;;;22.90;46.10;;;;;;5031269;28;20196;-46
2024/03/24 11:19:50;;;;;;;0.00;0.00;;;22.90;46.10;;;;;;5031684;28;20193;-47
2024/03/24 11:22:35;;;;;;;0.00;0.00;;;22.90;46.10;;;;;;5029578;28;20231;-48
2024/03/24 11:25:06;;;;;;;0.08;0.08;;;22.90;46.10;;;;;;5030104;28;20212;-47
2024/03/24 11:27:41;;;;;;;0.00;0.00;;;22.90;46.10;;;;;;5029499;28;20219;-45
2024/03/24 11:30:14;;;;;;;0.00;0.00;;;22.90;46.00;;;;;;5030574;28;20199;-47
2024/03/24 11:32:55;;;;;;;0.10;0.10;;;22.90;46.00;;;;;;5030549;28;20220;-50
2024/03/24 11:35:27;;;;;;;0.00;0.00;;;22.90;46.00;;;;;;5029630;28;20220;-46
2024/03/24 11:37:59;;;;;;;0.00;0.00;;;22.80;45.90;;;;;;5028817;28;20730;-51
2024/03/24 11:40:29;;;;;;;0.00;0.00;;;22.80;45.90;;;;;;5034575;28;20199;-47
2024/03/24 11:43:02;;;;;;;0.10;0.10;;;22.80;45.90;;;;;;5035111;28;20206;-47
2024/03/24 11:45:33;;;;;;;0.00;0.00;;;22.80;45.90;;;;;;5034960;28;20696;-49
2024/03/24 11:48:44;;;;;;;0.00;0.00;;;22.80;45.80;;;;;;5035092;28;20195;-48
2024/03/24 11:51:14;;;;;;;0.00;0.00;;;22.80;45.80;;;;;;5017736;28;20222;-49
2024/03/24 11:53:44;;;;;;;0.00;0.00;;;22.80;45.70;;;;;;5035566;28;20335;-49
2024/03/24 11:56:14;;;;;;;0.00;0.00;;;22.70;45.70;;;;;;5034561;28;20220;-45
2024/03/24 11:58:48;;;;;;;0.05;0.05;;;22.70;45.80;;;;;;5035352;28;20250;-47
2024/03/24 12:01:18;;;;;;;0.00;0.00;;;22.70;45.80;;;;;;5034770;28;20611;-47
2024/03/24 12:03:50;;;;;;;0.00;0.00;;;22.70;45.70;;;;;;5034722;28;20196;-48
2024/03/24 12:06:19;;;;;;;0.10;0.10;;;22.70;45.80;;;;;;5034864;28;20758;-47
2024/03/24 12:08:51;;;;;;;0.00;0.00;;;22.70;45.80;;;;;;5034726;28;20239;-45
2024/03/24 12:11:20;;;;;;;0.00;0.00;;;22.70;45.80;;;;;;5034379;28;20278;-48
2024/03/24 12:13:53;;;;;;;0.00;0.00;;;22.70;45.80;;;;;;5034645;28;20200;-47
2024/03/24 12:16:22;;;;;;;0.00;0.00;;;22.70;45.70;;;;;;5034091;28;20212;-46
2024/03/24 12:18:53;;;;;;;0.00;0.00;;;22.70;45.90;;;;;;5034907;28;20674;-47
2024/03/24 12:21:22;;;;;;;0.10;0.10;;;22.70;45.80;;;;;;5034890;28;20204;-45
2024/03/24 12:23:53;;;;;;;0.10;0.10;;;22.70;45.80;;;;;;5034961;28;20200;-47
2024/03/24 12:26:23;;;;;;;0.00;0.00;;;22.70;45.70;;;;;;5014991;28;20224;-46
2024/03/24 12:28:59;;;;;;;0.00;0.00;;;22.70;45.70;;;;;;5014817;28;20204;-45
2024/03/24 12:31:28;;;;;;;0.00;0.00;;;22.70;45.70;;;;;;5031001;28;20253;-45
2024/03/24 12:33:59;;;;;;;0.00;0.00;;;22.70;45.70;;;;;;5033658;28;20656;-46
2024/03/24 12:36:29;;;;;;;0.10;0.10;;;22.60;45.70;;;;;;5034173;28;20220;-47
2024/03/24 12:39:00;;;;;;;0.00;0.00;;;22.60;45.70;;;;;;5034208;28;20192;-47
2024/03/24 12:41:29;;;;;;;0.00;0.00;;;22.60;45.60;;;;;;5033773;28;20633;-46
2024/03/24 12:44:01;;;;;;;0.00;0.00;;;22.60;45.60;;;;;;5034137;28;20291;-45
2024/03/24 12:46:32;;;;;;;0.10;0.10;;;22.60;45.60;;;;;;5034052;28;20216;-46
2024/03/24 12:49:16;;;;;;;0.00;0.00;;;22.60;45.60;;;;;;5034217;28;20196;-45
2024/03/24 12:51:46;;;;;;;0.08;0.08;;;22.60;45.70;;;;;;5032497;28;20216;-47
2024/03/24 12:54:18;;;;;;;0.10;0.10;;;22.60;45.60;;;;;;5032798;28;20254;-46
2024/03/24 12:56:48;;;;;;;0.03;0.03;;;22.60;45.60;;;;;;5033398;28;20570;-47
2024/03/24 12:59:21;;;;;;;0.00;0.00;;;22.60;45.50;;;;;;5037918;23;20232;-46
2024/03/24 13:01:52;;;;;;;0.00;0.00;;;22.60;45.50;;;;;;5013967;28;20728;-47
2024/03/24 13:04:23;;;;;;;0.00;0.00;;;22.60;45.50;;;;;;5014165;28;20218;-45
2024/03/24 13:06:57;;;;;;;0.00;0.00;;;22.60;45.50;;;;;;5013548;28;20633;-45